Time;durP1;ratioP1;P1;durP2;ratioP2;P2;SDS_P1;SDS_P2;PMS_P1;PMS_P2;Temp;Humidity;BMP_temperature;BMP_pressure;BME280_temperature;BME280_humidity;BME280_pressure;Samples;Min_cycle;Max_cycle;Signal;HPM_P1;HPM_P2
2022/08/15 00:00:17;;;;;;;17.50;15.07;;;;;;;21.04;73.86;100269.13;5055097;28;20104;-78
2022/08/15 00:02:47;;;;;;;18.45;15.23;;;;;;;21.05;74.41;100265.53;5055033;28;20037;-78
2022/08/15 00:05:16;;;;;;;16.67;14.90;;;;;;;20.99;73.96;100260.97;5055089;28;20025;-77
2022/08/15 00:07:42;;;;;;;15.75;14.07;;;;;;;21.11;73.78;100272.69;5054920;28;20028;-77
2022/08/15 00:10:08;;;;;;;17.65;14.20;;;;;;;21.20;70.97;100268.97;5055010;28;20083;-77
2022/08/15 00:12:35;;;;;;;15.60;13.70;;;;;;;21.09;70.20;100232.66;5054907;28;20029;-78
2022/08/15 00:15:04;;;;;;;15.00;13.40;;;;;;;21.25;72.36;100263.22;5054881;28;20021;-77
2022/08/15 00:17:30;;;;;;;17.25;14.52;;;;;;;21.11;72.70;100254.31;5054679;28;20033;-77
2022/08/15 00:19:56;;;;;;;16.80;13.88;;;;;;;21.14;73.16;100286.28;5054908;28;20028;-78
2022/08/15 00:22:21;;;;;;;20.80;14.35;;;;;;;21.04;70.70;100287.50;5054813;28;20491;-77
2022/08/15 00:24:49;;;;;;;21.50;17.60;;;;;;;21.03;69.73;100265.69;5054733;28;20029;-78
2022/08/15 00:27:14;;;;;;;21.60;18.33;;;;;;;21.15;69.02;100273.97;5036537;28;20126;-77
2022/08/15 00:29:41;;;;;;;23.80;18.48;;;;;;;21.23;68.91;100289.63;5054219;28;20091;-78
2022/08/15 00:32:10;;;;;;;20.85;18.05;;;;;;;21.19;69.10;100259.47;5054754;28;20028;-77
2022/08/15 00:34:36;;;;;;;20.80;17.65;;;;;;;21.27;68.24;100267.31;5054325;28;20484;-77
2022/08/15 00:37:05;;;;;;;21.77;18.98;;;;;;;21.30;68.56;100274.81;5054480;28;20068;-76
2022/08/15 00:39:32;;;;;;;18.95;16.75;;;;;;;21.23;68.19;100271.25;5054750;28;20400;-76
2022/08/15 00:42:00;;;;;;;19.08;17.05;;;;;;;21.27;69.37;100279.63;5054435;28;20472;-77
2022/08/15 00:44:40;;;;;;;20.08;17.38;;;;;;;21.14;69.22;100264.47;5053913;28;20111;-77
2022/08/15 00:47:10;;;;;;;19.75;16.73;;;;;;;21.20;68.66;100280.31;5054220;28;20061;-76
2022/08/15 00:49:35;;;;;;;21.58;17.48;;;;;;;21.21;68.90;100278.50;5054397;28;20040;-77
2022/08/15 00:52:09;;;;;;;20.13;16.60;;;;;;;21.22;68.58;100280.13;5054283;28;20025;-78
2022/08/15 00:54:50;;;;;;;20.15;17.38;;;;;;;21.15;68.50;100263.47;5054323;28;20404;-77
2022/08/15 00:57:29;;;;;;;20.45;16.58;;;;;;;21.06;69.82;100262.72;5053898;28;20025;-78
2022/08/15 00:59:59;;;;;;;18.73;15.88;;;;;;;21.13;69.94;100279.38;5053935;28;20055;-78
2022/08/15 01:02:28;;;;;;;21.80;16.95;;;;;;;21.00;70.43;100279.19;5054011;28;20025;-77
2022/08/15 01:04:54;;;;;;;19.33;15.63;;;;;;;20.83;71.63;100254.06;5053937;28;20029;-78
2022/08/15 01:07:22;;;;;;;20.13;17.25;;;;;;;20.80;71.53;100244.72;5053960;28;20071;-78
2022/08/15 01:09:49;;;;;;;20.95;17.83;;;;;;;20.87;72.03;100264.03;5053850;28;20025;-77
2022/08/15 01:12:18;;;;;;;20.40;17.05;;;;;;;20.52;72.66;100228.72;5053664;28;20017;-77
2022/08/15 01:14:51;;;;;;;18.27;16.30;;;;;;;20.60;73.13;100252.28;5053646;28;20024;-78
2022/08/15 01:17:18;;;;;;;17.98;16.10;;;;;;;20.59;73.74;100262.94;5053711;28;20037;-78
2022/08/15 01:19:52;;;;;;;21.95;17.67;;;;;;;20.60;72.73;100270.63;5053673;28;20028;-77
2022/08/15 01:22:35;;;;;;;18.85;16.85;;;;;;;20.46;72.68;100249.59;5053522;28;20025;-78
2022/08/15 01:25:06;;;;;;;19.42;16.25;;;;;;;20.48;74.32;100247.63;5053453;28;20032;-78
2022/08/15 01:27:37;;;;;;;19.40;16.75;;;;;;;20.45;73.67;100251.41;5053497;28;20426;-78
2022/08/15 01:30:08;;;;;;;18.00;15.75;;;;;;;20.45;73.28;100266.31;5053300;28;20112;-78
2022/08/15 01:32:33;;;;;;;17.80;15.77;;;;;;;20.52;71.90;100267.25;5053456;28;20021;-78
2022/08/15 01:35:02;;;;;;;19.17;16.25;;;;;;;20.45;73.49;100261.91;5053197;28;20558;-76
2022/08/15 01:37:28;;;;;;;17.58;15.60;;;;;;;20.50;73.26;100258.75;5053395;28;20120;-77
2022/08/15 01:40:01;;;;;;;18.13;15.70;;;;;;;20.55;70.38;100254.63;5053124;28;20163;-78
2022/08/15 01:42:41;;;;;;;18.20;16.30;;;;;;;20.57;69.75;100257.06;5053224;28;20025;-78
2022/08/15 01:45:11;;;;;;;17.77;14.93;;;;;;;20.53;70.84;100255.75;5052976;28;20031;-77
2022/08/15 01:47:49;;;;;;;18.50;14.90;;;;;;;20.61;68.87;100250.47;5052973;28;20154;-76
2022/08/15 01:50:26;;;;;;;18.05;14.80;;;;;;;20.61;69.04;100259.16;5053170;28;20039;-78
2022/08/15 01:52:59;;;;;;;18.25;15.10;;;;;;;20.48;70.47;100247.63;5052859;28;20147;-78
2022/08/15 01:55:30;;;;;;;16.58;14.15;;;;;;;20.56;67.20;100248.38;5053049;28;20021;-77
2022/08/15 01:57:56;;;;;;;16.25;14.10;;;;;;;20.55;68.19;100251.16;5052822;28;20024;-78
2022/08/15 02:00:22;;;;;;;15.73;13.77;;;;;;;20.51;67.75;100255.13;5052720;28;20029;-77
2022/08/15 02:02:48;;;;;;;18.30;14.27;;;;;;;20.46;67.99;100249.59;5052967;28;20028;-78
2022/08/15 02:05:14;;;;;;;16.15;14.18;;;;;;;20.43;68.66;100256.00;5052343;28;20384;-77
2022/08/15 02:07:40;;;;;;;16.88;13.52;;;;;;;20.46;66.66;100263.53;5052564;28;20484;-77
2022/08/15 02:10:06;;;;;;;16.17;14.23;;;;;;;20.34;67.08;100265.69;5052637;28;20114;-77
2022/08/15 02:12:36;;;;;;;15.15;13.35;;;;;;;20.44;66.52;100277.78;5052940;28;20071;-77
2022/08/15 02:15:08;;;;;;;15.82;13.65;;;;;;;20.38;66.60;100270.59;5052766;28;20076;-77
2022/08/15 02:17:34;;;;;;;14.98;12.98;;;;;;;20.39;66.27;100272.25;5052752;28;20031;-77
2022/08/15 02:20:00;;;;;;;14.82;12.35;;;;;;;20.26;66.00;100257.09;5052735;28;20477;-77
2022/08/15 02:22:26;;;;;;;16.23;11.75;;;;;;;20.28;65.52;100273.44;5052317;28;20035;-78
2022/08/15 02:24:54;;;;;;;13.65;11.85;;;;;;;20.24;65.25;100272.97;5052671;28;20028;-78
2022/08/15 02:27:19;;;;;;;14.02;11.45;;;;;;;20.25;65.66;100277.22;5052342;28;20071;-78
2022/08/15 02:29:45;;;;;;;15.65;11.70;;;;;;;20.12;65.75;100258.63;5052531;28;20468;-78
2022/08/15 02:32:14;;;;;;;13.55;10.75;;;;;;;20.23;65.95;100276.56;5052622;28;20040;-77
2022/08/15 02:34:42;;;;;;;12.82;10.65;;;;;;;20.19;66.05;100277.09;5052388;28;20033;-77
2022/08/15 02:37:08;;;;;;;12.70;9.82;;;;;;;20.15;66.26;100274.00;5052523;28;20396;-77
2022/08/15 02:39:34;;;;;;;14.30;10.00;;;;;;;20.15;66.85;100275.78;5034590;28;20017;-78
2022/08/15 02:41:59;;;;;;;13.63;10.23;;;;;;;20.18;65.95;100273.66;5052082;28;20474;-78
2022/08/15 02:44:25;;;;;;;12.02;10.27;;;;;;;20.19;65.36;100277.91;5052217;28;20029;-78
2022/08/15 02:46:52;;;;;;;14.07;9.98;;;;;;;20.14;64.93;100271.53;5052280;28;20052;-78
2022/08/15 02:49:19;;;;;;;11.73;9.75;;;;;;;20.11;66.55;100266.66;5052000;28;20079;-78
2022/08/15 02:51:46;;;;;;;11.43;8.82;;;;;;;20.06;63.59;100256.69;5052262;28;20086;-77
2022/08/15 02:54:13;;;;;;;10.43;8.48;;;;;;;20.18;63.57;100276.28;5052194;28;20029;-77
2022/08/15 02:56:39;;;;;;;10.15;8.82;;;;;;;20.17;63.22;100272.03;5052217;28;20477;-78
2022/08/15 02:59:07;;;;;;;9.25;7.85;;;;;;;20.12;62.63;100274.34;5052185;28;20021;-78
2022/08/15 03:01:37;;;;;;;12.50;7.95;;;;;;;20.16;62.02;100282.69;5034357;28;20389;-78
2022/08/15 03:04:08;;;;;;;10.65;7.28;;;;;;;20.12;63.35;100286.63;5052121;28;20384;-78
2022/08/15 03:06:34;;;;;;;8.80;7.65;;;;;;;20.07;61.25;100275.88;5052341;28;20036;-78
2022/08/15 03:09:04;;;;;;;10.98;7.55;;;;;;;20.16;60.91;100290.56;5052210;28;20025;-78
2022/08/15 03:11:30;;;;;;;11.75;7.20;;;;;;;20.12;60.80;100284.00;5052025;28;20098;-78
2022/08/15 03:13:55;;;;;;;11.63;6.93;;;;;;;20.11;60.57;100280.56;5052201;28;20025;-78
2022/08/15 03:16:21;;;;;;;8.40;6.68;;;;;;;20.05;60.90;100268.16;5053568;28;20036;-78
2022/08/15 03:18:47;;;;;;;9.18;6.47;;;;;;;19.92;60.49;100249.53;5055699;28;20021;-78
2022/08/15 03:21:16;;;;;;;8.60;6.15;;;;;;;20.00;60.42;100273.91;5055694;28;20051;-78
2022/08/15 03:23:48;;;;;;;11.00;6.22;;;;;;;19.98;60.45;100275.91;5055821;28;20384;-78
2022/08/15 03:26:16;;;;;;;7.35;5.78;;;;;;;19.91;61.36;100274.94;5037649;28;20017;-78
2022/08/15 03:28:42;;;;;;;8.75;5.85;;;;;;;19.85;60.29;100272.16;5055920;28;20074;-78
2022/08/15 03:31:07;;;;;;;7.18;5.30;;;;;;;19.85;62.42;100274.78;5055278;28;20028;-77
2022/08/15 03:33:35;;;;;;;8.27;5.60;;;;;;;19.85;60.87;100277.41;5055591;28;20132;-76
2022/08/15 03:36:01;;;;;;;9.20;6.05;;;;;;;19.67;61.31;100273.25;5055749;28;20484;-77
2022/08/15 03:38:26;;;;;;;10.95;5.65;;;;;;;19.57;60.68;100272.63;5055503;28;20029;-78
2022/08/15 03:40:53;;;;;;;13.32;5.93;;;;;;;19.65;60.59;100283.03;5055263;28;20058;-78
2022/08/15 03:43:29;;;;;;;9.23;6.03;;;;;;;19.56;60.66;100276.19;5055715;28;20021;-78
2022/08/15 03:45:59;;;;;;;7.22;5.93;;;;;;;19.55;61.00;100282.41;5055279;28;20029;-78
2022/08/15 03:48:29;;;;;;;8.05;6.07;;;;;;;19.54;59.92;100274.72;5055484;28;20032;-77
2022/08/15 03:50:57;;;;;;;7.55;5.82;;;;;;;19.44;60.81;100267.84;5055260;28;20028;-78
2022/08/15 03:53:23;;;;;;;11.70;5.60;;;;;;;19.26;60.62;100245.47;5037142;28;20059;-77
2022/08/15 03:55:48;;;;;;;9.35;5.50;;;;;;;19.27;61.62;100268.06;5055397;28;20025;-78
2022/08/15 03:58:14;;;;;;;10.13;6.25;;;;;;;19.33;61.27;100280.50;5055193;28;20025;-78
2022/08/15 04:00:46;;;;;;;9.77;6.22;;;;;;;19.32;60.95;100273.63;5036511;28;20124;-78
2022/08/15 04:03:16;;;;;;;10.63;6.30;;;;;;;19.33;60.99;100281.31;5055052;28;20495;-78
2022/08/15 04:05:49;;;;;;;11.13;6.10;;;;;;;19.22;61.36;100273.78;5055003;28;20028;-78
2022/08/15 04:08:17;;;;;;;10.77;6.20;;;;;;;19.29;61.33;100284.44;5037291;28;20388;-78
2022/08/15 04:10:43;;;;;;;9.88;6.05;;;;;;;19.32;61.33;100295.38;5037032;28;20108;-78
2022/08/15 04:13:10;;;;;;;10.88;6.28;;;;;;;19.23;61.08;100290.31;5054980;28;20029;-78
2022/08/15 04:15:37;;;;;;;14.45;6.63;;;;;;;19.27;61.19;100296.84;5055075;28;20033;-78
2022/08/15 04:18:03;;;;;;;9.57;6.70;;;;;;;19.27;60.82;100312.56;5054787;28;20021;-77
2022/08/15 04:20:29;;;;;;;9.48;6.50;;;;;;;19.16;61.26;100290.97;5054815;28;20071;-78
2022/08/15 04:22:54;;;;;;;9.05;7.20;;;;;;;19.18;61.65;100298.69;5054506;28;20028;-77
2022/08/15 04:25:28;;;;;;;10.45;7.68;;;;;;;19.11;61.32;100298.50;5036126;28;20036;-77
2022/08/15 04:27:59;;;;;;;11.10;7.43;;;;;;;19.13;60.99;100298.34;5054212;28;20025;-77
2022/08/15 04:30:30;;;;;;;12.38;6.88;;;;;;;19.07;61.21;100299.81;5054665;28;20479;-78
2022/08/15 04:33:15;;;;;;;10.70;6.95;;;;;;;19.07;61.67;100297.19;5054421;28;20037;-79
2022/08/15 04:35:45;;;;;;;9.40;7.38;;;;;;;19.00;61.16;100298.84;5054085;28;20048;-77
2022/08/15 04:38:10;;;;;;;10.10;7.22;;;;;;;19.24;64.06;100313.72;5054591;28;20476;-81
2022/08/15 04:40:36;;;;;;;9.80;7.00;;;;;;;19.35;65.38;100297.66;5054533;28;20096;-81
2022/08/15 04:43:02;;;;;;;14.40;7.00;;;;;;;19.44;64.74;100298.47;5054392;28;20423;-78
2022/08/15 04:45:30;;;;;;;12.32;6.68;;;;;;;19.49;63.86;100294.38;5054478;28;20021;-80
2022/08/15 04:48:02;;;;;;;11.60;6.78;;;;;;;19.50;63.20;100292.56;5054163;28;20036;-82
2022/08/15 04:50:30;;;;;;;10.82;5.90;;;;;;;19.55;64.88;100285.00;5054258;28;20021;-82
2022/08/15 04:52:58;;;;;;;10.02;6.50;;;;;;;19.76;64.27;100311.53;5054415;28;20051;-79
2022/08/15 04:55:24;;;;;;;10.52;6.97;;;;;;;19.55;62.26;100285.00;5054250;28;20109;-81
2022/08/15 04:57:51;;;;;;;11.00;6.57;;;;;;;19.67;62.17;100303.84;5054172;28;20032;-80
2022/08/15 05:00:19;;;;;;;9.10;6.00;;;;;;;19.83;63.62;100305.59;5054160;28;20025;-78
2022/08/15 05:03:01;;;;;;;8.82;6.38;;;;;;;20.03;62.98;100309.44;5053609;28;20036;-78
2022/08/15 05:05:28;;;;;;;8.55;6.50;;;;;;;20.13;62.78;100304.00;5054218;28;20029;-79
2022/08/15 05:07:54;;;;;;;11.13;7.00;;;;;;;20.26;60.59;100299.03;5054003;28;20017;-79
2022/08/15 05:10:19;;;;;;;12.93;6.55;;;;;;;20.53;61.24;100311.66;5053887;28;20075;-78
2022/08/15 05:12:45;;;;;;;7.93;6.18;;;;;;;20.58;61.04;100298.03;5053739;28;20055;-79
2022/08/15 05:15:12;;;;;;;9.38;6.63;;;;;;;20.70;58.64;100290.56;5053799;28;20104;-80
2022/08/15 05:17:38;;;;;;;9.55;6.85;;;;;;;20.85;58.09;100315.91;5053481;28;20082;-80
2022/08/15 05:20:05;;;;;;;11.60;6.57;;;;;;;20.90;58.94;100291.72;5053927;28;20021;-80
2022/08/15 05:22:31;;;;;;;9.57;5.88;;;;;;;21.27;58.41;100324.28;5053833;28;20104;-81
2022/08/15 05:24:57;;;;;;;11.75;6.55;;;;;;;21.26;58.25;100322.63;5053649;28;20599;-79
2022/08/15 05:27:22;;;;;;;11.95;6.88;;;;;;;21.15;58.07;100308.09;5053727;28;20021;-81
2022/08/15 05:29:51;;;;;;;12.98;6.78;;;;;;;21.27;58.42;100324.28;5053613;28;20107;-79
2022/08/15 05:32:17;;;;;;;13.45;6.40;;;;;;;21.32;57.74;100314.84;5051952;28;20036;-79
2022/08/15 05:34:43;;;;;;;13.75;7.10;;;;;;;21.08;57.70;100283.53;5073137;28;20042;-83
2022/08/15 05:37:09;;;;;;;9.75;6.10;;;;;;;21.41;58.64;100321.66;5093520;28;20036;-81
2022/08/15 05:39:36;;;;;;;8.82;5.78;;;;;;;21.38;58.18;100308.06;5073971;28;20033;-82
2022/08/15 05:42:12;;;;;;;10.75;5.75;;;;;;;21.46;58.72;100319.31;5092866;28;20028;-80
2022/08/15 05:45:02;;;;;;;11.43;6.88;;;;;;;21.42;58.74;100323.28;5093290;28;20023;-81
2022/08/15 05:47:31;;;;;;;9.43;5.95;;;;;;;21.48;58.56;100330.47;5093501;28;20035;-81
2022/08/15 05:50:11;;;;;;;9.02;6.25;;;;;;;21.51;58.84;100342.41;5093099;28;20028;-81
2022/08/15 05:52:39;;;;;;;9.90;6.40;;;;;;;21.47;58.99;100343.78;5074484;28;20048;-79
2022/08/15 05:55:23;;;;;;;11.43;7.45;;;;;;;21.32;59.50;100341.13;5093128;28;20380;-81
2022/08/15 05:58:10;;;;;;;9.35;6.50;;;;;;;21.33;59.72;100345.38;5074572;28;20028;-79
2022/08/15 06:00:38;;;;;;;13.73;6.25;;;;;;;20.62;59.47;100220.63;5093463;28;20028;-80
2022/08/15 06:03:26;;;;;;;11.15;6.25;;;;;;;20.58;59.68;100195.72;5093023;28;20072;-80
2022/08/15 06:06:04;;;;;;;9.00;6.28;;;;;;;20.43;59.34;100166.00;5092861;28;20025;-80
2022/08/15 06:08:35;;;;;;;9.90;5.75;;;;;;;21.72;59.32;100339.06;5093362;28;20383;-80
2022/08/15 06:11:30;;;;;;;8.73;5.68;;;;;;;21.84;59.01;100342.09;5093135;28;20539;-80
2022/08/15 06:14:00;;;;;;;14.20;6.93;;;;;;;21.77;59.51;100347.25;5092849;28;20499;-80
2022/08/15 06:16:36;;;;;;;9.77;6.50;;;;;;;21.74;60.07;100345.00;5092974;28;20020;-79
2022/08/15 06:19:06;;;;;;;8.75;5.65;;;;;;;21.94;59.58;100343.44;5093101;28;20028;-79
2022/08/15 06:22:22;;;;;;;11.48;6.10;;;;;;;22.03;59.80;100345.00;5093021;28;20391;-79
2022/08/15 06:24:59;;;;;;;10.48;6.55;;;;;;;21.99;60.03;100354.22;5030490;28;20052;-79
2022/08/15 06:27:31;;;;;;;12.70;6.95;;;;;;;21.90;60.62;100352.69;5030366;28;20042;-80
2022/08/15 06:30:08;;;;;;;10.07;5.53;;;;;;;22.11;59.85;100351.16;5030498;28;20505;-80
2022/08/15 06:33:03;;;;;;;10.68;6.75;;;;;;;22.15;60.38;100355.06;5030538;28;20459;-80
2022/08/15 06:39:28;;;;;;;10.43;5.82;;;;;;;22.10;59.19;100241.72;5024564;28;20080;-81
2022/08/15 06:42:25;;;;;;;12.23;6.95;;;;;;;22.26;59.04;100262.53;5030391;28;20167;-80
2022/08/15 06:44:59;;;;;;;14.95;7.43;;;;;;;22.03;59.28;100241.63;5013249;28;20121;-81
2022/08/15 06:47:34;;;;;;;12.80;7.10;;;;;;;22.39;59.45;100296.84;5030450;28;20041;-81
2022/08/15 06:50:07;;;;;;;10.30;6.93;;;;;;;22.59;59.88;100349.69;5014693;28;20438;-81
2022/08/15 06:52:34;;;;;;;10.48;6.32;;;;;;;22.50;60.36;100359.50;5034313;28;20100;-81
2022/08/15 06:54:59;;;;;;;12.63;7.25;;;;;;;22.25;60.36;100316.13;5034408;28;20029;-81
2022/08/15 06:57:54;;;;;;;10.38;6.68;;;;;;;22.45;60.39;100340.03;5036813;28;20120;-81
2022/08/15 07:00:35;;;;;;;9.70;6.50;;;;;;;22.46;60.24;100339.84;5096567;28;20371;-81
2022/08/15 07:03:23;;;;;;;11.23;6.82;;;;;;;22.54;61.16;100359.97;5078163;28;20036;-80
2022/08/15 07:05:56;;;;;;;11.25;6.50;;;;;;;22.52;60.88;100357.53;5096504;28;20028;-80
2022/08/15 07:08:53;;;;;;;11.20;6.80;;;;;;;22.46;61.67;100355.63;5096572;28;20020;-82
2022/08/15 07:11:49;;;;;;;11.85;7.63;;;;;;;21.96;61.85;100294.13;5075758;28;20033;-81
2022/08/15 07:14:30;;;;;;;11.15;6.78;;;;;;;22.23;61.72;100320.78;5076368;28;20095;-81
2022/08/15 07:17:23;;;;;;;11.52;6.60;;;;;;;22.56;61.53;100353.53;5057913;28;20039;-82
2022/08/15 07:19:57;;;;;;;13.88;7.38;;;;;;;22.02;61.85;100253.13;5082528;22;20508;-81
2022/08/15 07:22:23;;;;;;;11.18;7.22;;;;;;;22.18;61.20;100244.22;5075686;28;20064;-82
2022/08/15 07:24:53;;;;;;;14.00;7.70;;;;;;;22.82;61.41;100323.22;5075095;28;20055;-81
2022/08/15 07:27:30;;;;;;;13.93;8.23;;;;;;;22.68;61.35;100303.84;5060329;28;20032;-81
2022/08/15 07:29:59;;;;;;;13.00;8.45;;;;;;;22.67;60.33;100265.34;5069004;22;20140;-80
2022/08/15 07:32:56;;;;;;;11.40;7.72;;;;;;;23.39;60.43;100325.72;5075571;28;20468;-80
2022/08/15 07:35:29;;;;;;;14.30;7.63;;;;;;;23.85;58.54;100348.13;5075425;28;20031;-79
2022/08/15 07:37:59;;;;;;;15.38;8.77;;;;;;;23.64;59.83;100349.03;5075593;28;20021;-79
2022/08/15 07:40:40;;;;;;;12.98;7.68;;;;;;;23.15;59.98;100278.75;5075370;28;20035;-79
2022/08/15 07:43:32;;;;;;;11.68;8.15;;;;;;;23.30;59.84;100299.69;5075584;28;20379;-79
2022/08/15 07:46:20;;;;;;;11.40;8.43;;;;;;;22.75;60.31;100206.50;5075227;28;20024;-80
2022/08/15 07:49:07;;;;;;;13.80;9.57;;;;;;;22.64;60.64;100207.03;5075145;28;20054;-80
2022/08/15 07:52:01;;;;;;;14.48;9.98;;;;;;;23.56;60.38;100349.97;5074825;28;20123;-80
2022/08/15 07:54:52;;;;;;;11.98;9.00;;;;;;;23.57;60.46;100356.84;4993825;28;20042;-80
2022/08/15 07:57:27;;;;;;;16.70;9.63;;;;;;;23.57;61.10;100362.13;4993427;28;20097;-79
2022/08/15 08:00:11;;;;;;;15.18;9.65;;;;;;;23.46;61.45;100371.38;4993519;28;20684;-80
2022/08/15 08:03:00;;;;;;;13.85;10.00;;;;;;;23.36;61.49;100363.00;4992904;28;20088;-79
2022/08/15 08:05:30;;;;;;;14.40;10.00;;;;;;;23.04;61.96;100305.59;4993193;28;20050;-80
2022/08/15 08:08:00;;;;;;;19.42;11.32;;;;;;;23.24;61.83;100340.81;4993581;28;20116;-77
2022/08/15 08:10:40;;;;;;;15.15;10.00;;;;;;;23.33;62.25;100350.22;4993697;28;20072;-79
2022/08/15 08:13:35;;;;;;;12.95;10.32;;;;;;;23.04;61.90;100293.25;4993517;28;20109;-77
2022/08/15 08:16:16;;;;;;;16.35;10.23;;;;;;;23.53;62.05;100350.34;4993470;28;20038;-75
2022/08/15 08:19:10;;;;;;;16.30;12.20;;;;;;;23.57;60.76;100343.69;4993334;28;20077;-79
2022/08/15 08:21:53;;;;;;;17.65;11.73;;;;;;;23.98;60.64;100358.75;4993264;28;20034;-79
2022/08/15 08:24:32;;;;;;;17.08;11.00;;;;;;;24.26;59.95;100375.31;4993239;28;20384;-76
2022/08/15 08:27:25;;;;;;;16.15;11.32;;;;;;;24.47;58.83;100370.97;4981399;28;20043;-75
2022/08/15 08:30:04;;;;;;;14.60;11.32;;;;;;;24.48;58.81;100360.22;4989994;28;20042;-74
2022/08/15 08:32:56;;;;;;;17.48;11.75;;;;;;;24.45;58.50;100365.06;5092533;28;20040;-77
2022/08/15 08:35:21;;;;;;;14.65;9.55;;;;;;;24.59;58.42;100370.19;5094827;28;20379;-79
2022/08/15 08:38:07;;;;;;;16.65;11.50;;;;;;;24.60;58.34;100373.66;5094747;28;20024;-78
2022/08/15 08:43:52;;;;;;;14.82;10.57;;;;;;;24.45;59.48;100373.00;5094788;28;20510;-79
2022/08/15 08:46:40;;;;;;;13.98;10.30;;;;;;;24.43;58.77;100367.09;5094743;28;20039;-78
2022/08/15 08:49:23;;;;;;;13.95;9.57;;;;;;;24.37;58.50;100367.88;5094466;28;20510;-78
2022/08/15 08:52:13;;;;;;;15.07;9.73;;;;;;;24.23;58.85;100378.34;5094079;28;20020;-77
2022/08/15 08:55:01;;;;;;;15.20;9.10;;;;;;;24.14;59.15;100376.09;5094336;28;20032;-77
2022/08/15 08:57:44;;;;;;;13.88;9.27;;;;;;;24.00;59.57;100376.03;5094329;28;20055;-77
2022/08/15 09:00:28;;;;;;;14.48;9.73;;;;;;;23.90;60.12;100367.66;5094057;28;20035;-77
2022/08/15 09:03:09;;;;;;;14.75;9.30;;;;;;;24.02;60.30;100392.47;5094282;28;20416;-79
2022/08/15 09:05:41;;;;;;;15.07;10.25;;;;;;;23.73;60.27;100356.59;5075872;28;20024;-77
2022/08/15 09:08:18;;;;;;;14.13;9.68;;;;;;;23.48;60.91;100326.38;5093947;28;20048;-77
2022/08/15 09:10:47;;;;;;;11.85;8.85;;;;;;;23.70;61.10;100364.91;5093945;28;20027;-77
2022/08/15 09:16:06;;;;;;;13.85;8.88;;;;;;;23.89;61.36;100388.94;5094168;28;20035;-78
2022/08/15 09:18:42;;;;;;;14.50;8.77;;;;;;;23.73;62.07;100356.59;5094066;28;20081;-77
2022/08/15 09:21:08;;;;;;;14.52;9.00;;;;;;;23.75;61.60;100377.50;5092604;28;20437;-75
2022/08/15 09:23:38;;;;;;;12.32;9.00;;;;;;;23.79;61.33;100391.91;5093715;28;20024;-76
2022/08/15 09:26:12;;;;;;;11.27;8.73;;;;;;;23.82;61.42;100390.72;5094492;28;20052;-77
2022/08/15 09:28:43;;;;;;;12.88;8.20;;;;;;;23.80;62.23;100388.28;5093693;28;20024;-77
2022/08/15 09:31:20;;;;;;;18.40;9.70;;;;;;;23.82;62.13;100391.53;5093503;28;20052;-76
2022/08/15 09:34:21;;;;;;;15.13;9.43;;;;;;;23.77;62.37;100385.22;5093525;28;20035;-77
2022/08/15 09:36:59;;;;;;;13.40;8.80;;;;;;;23.56;63.25;100383.41;5092919;28;20552;-76
2022/08/15 09:39:42;;;;;;;14.35;9.55;;;;;;;23.52;64.31;100398.00;5093554;28;20028;-75
2022/08/15 09:42:32;;;;;;;14.27;10.05;;;;;;;23.46;64.83;100395.09;5093437;28;20122;-75
2022/08/15 09:45:24;;;;;;;14.32;9.18;;;;;;;23.63;64.06;100386.94;5093347;28;20070;-78
2022/08/15 09:48:00;;;;;;;13.30;9.18;;;;;;;23.75;64.85;100383.59;5095760;28;20119;-76
2022/08/15 09:50:48;;;;;;;14.82;9.63;;;;;;;23.90;63.50;100386.13;5093918;28;20024;-78
2022/08/15 09:53:22;;;;;;;12.88;8.85;;;;;;;23.99;63.72;100390.22;5074949;28;20067;-75
2022/08/15 09:55:49;;;;;;;11.88;8.95;;;;;;;24.05;62.50;100375.44;5075187;28;20063;-76
2022/08/15 09:58:20;;;;;;;13.30;9.20;;;;;;;24.19;61.56;100387.69;5092868;28;20024;-74
2022/08/15 10:01:09;;;;;;;12.40;8.50;;;;;;;24.43;61.47;100390.84;5092836;28;20028;-74
2022/08/15 10:03:43;;;;;;;13.30;8.80;;;;;;;24.70;61.19;100395.22;5093085;28;20024;-73
2022/08/15 10:06:17;;;;;;;11.82;8.30;;;;;;;24.91;59.80;100380.22;5092862;28;20020;-71
2022/08/15 10:08:55;;;;;;;14.32;9.55;;;;;;;25.32;59.05;100393.28;5092567;28;20499;-75
2022/08/15 10:11:51;;;;;;;14.60;8.35;;;;;;;25.71;57.34;100395.94;5092701;28;20077;-74
2022/08/15 10:14:19;;;;;;;14.45;9.55;;;;;;;25.91;56.14;100387.94;5092525;28;20024;-75
2022/08/15 10:16:48;;;;;;;15.20;9.07;;;;;;;25.92;55.79;100389.56;5092653;28;20028;-74
2022/08/15 10:19:39;;;;;;;14.20;8.50;;;;;;;25.96;55.66;100382.88;5092698;28;20065;-73
2022/08/15 10:22:24;;;;;;;11.65;8.13;;;;;;;25.83;55.88;100385.53;5089964;28;20479;-74
2022/08/15 10:25:17;;;;;;;11.48;8.65;;;;;;;25.69;56.09;100392.66;5083619;28;20090;-75
2022/08/15 10:27:53;;;;;;;14.82;8.93;;;;;;;25.65;55.74;100387.97;5072339;28;20055;-75
2022/08/15 10:30:21;;;;;;;13.05;8.73;;;;;;;25.66;56.21;100389.59;5072177;28;20041;-73
2022/08/15 10:32:48;;;;;;;14.07;8.60;;;;;;;25.69;55.79;100381.25;5071960;28;20477;-74
2022/08/15 10:35:30;;;;;;;14.90;8.93;;;;;;;25.76;55.95;100390.00;5072256;28;20139;-73
2022/08/15 10:38:03;;;;;;;15.30;8.63;;;;;;;25.66;55.34;100398.34;5072156;28;20033;-72
2022/08/15 10:40:40;;;;;;;10.68;8.02;;;;;;;25.65;55.43;100395.91;5072270;28;20024;-73
2022/08/15 10:43:19;;;;;;;11.77;8.48;;;;;;;25.44;56.00;100381.88;5071977;28;20098;-72
2022/08/15 10:45:54;;;;;;;10.13;7.57;;;;;;;25.60;56.21;100395.72;5072137;28;20028;-75
2022/08/15 10:48:34;;;;;;;11.48;8.25;;;;;;;25.65;55.87;100383.47;5072235;28;20024;-76
2022/08/15 10:51:08;;;;;;;13.73;7.83;;;;;;;25.73;55.09;100377.19;5072569;28;20372;-75
2022/08/15 10:54:01;;;;;;;12.25;8.70;;;;;;;25.88;55.15;100398.97;5072016;28;20025;-75
2022/08/15 10:56:32;;;;;;;14.48;9.23;;;;;;;25.64;55.28;100387.16;5072130;28;20036;-76
2022/08/15 10:59:07;;;;;;;12.77;8.07;;;;;;;25.60;55.63;100399.16;5072267;28;20032;-76
2022/08/15 11:01:33;;;;;;;11.15;8.57;;;;;;;25.44;56.14;100384.53;5071951;28;20495;-76
2022/08/15 11:04:05;;;;;;;12.85;8.48;;;;;;;25.45;55.91;100409.13;5072058;28;20029;-76
2022/08/15 11:06:41;;;;;;;14.98;8.50;;;;;;;25.24;56.51;100404.06;5072348;28;20027;-76
2022/08/15 11:09:13;;;;;;;10.27;8.15;;;;;;;25.01;57.68;100410.50;5071809;28;20529;-76
2022/08/15 11:11:47;;;;;;;13.48;8.20;;;;;;;24.88;58.20;100407.84;5071942;28;20476;-75
2022/08/15 11:14:26;;;;;;;12.48;7.80;;;;;;;24.82;58.26;100408.63;5072064;28;20052;-76
2022/08/15 11:16:52;;;;;;;12.15;7.88;;;;;;;24.75;58.13;100411.25;5051173;28;20037;-74
2022/08/15 11:19:37;;;;;;;14.20;7.97;;;;;;;24.66;58.54;100391.31;5071257;28;20029;-76
2022/08/15 11:22:06;;;;;;;10.82;8.40;;;;;;;24.49;58.61;100388.25;5063543;28;20036;-74
2022/08/15 11:24:36;;;;;;;11.93;8.77;;;;;;;24.42;58.72;100386.59;5060618;28;20095;-74
2022/08/15 11:27:16;;;;;;;14.88;8.35;;;;;;;24.57;58.53;100406.53;5051055;28;20120;-77
2022/08/15 11:29:44;;;;;;;14.05;8.30;;;;;;;24.62;59.00;100413.88;5075867;28;20648;-76
2022/08/15 11:32:21;;;;;;;12.05;7.80;;;;;;;24.68;59.50;100409.59;5092064;28;20380;-76
2022/08/15 11:34:47;;;;;;;12.88;7.47;;;;;;;24.70;58.70;100395.22;5091966;28;20028;-78
2022/08/15 11:37:19;;;;;;;10.70;7.63;;;;;;;24.73;58.12;100415.13;5093276;28;20024;-76
2022/08/15 11:40:00;;;;;;;10.43;7.25;;;;;;;24.77;58.10;100425.06;5095418;28;20062;-73
2022/08/15 11:42:29;;;;;;;11.85;7.45;;;;;;;24.72;58.11;100393.19;5095362;28;20031;-74
2022/08/15 11:44:58;;;;;;;11.80;7.43;;;;;;;24.93;58.57;100410.69;5095871;28;20432;-78
2022/08/15 11:47:26;;;;;;;15.98;8.10;;;;;;;25.00;57.68;100416.00;5095762;28;20087;-78
2022/08/15 11:50:01;;;;;;;12.23;7.75;;;;;;;25.05;57.39;100406.47;5095641;28;20024;-75
2022/08/15 11:52:31;;;;;;;12.95;7.47;;;;;;;25.30;57.60;100421.75;5095533;28;20099;-78
2022/08/15 11:55:12;;;;;;;10.50;7.82;;;;;;;25.49;57.21;100420.94;5095377;28;20028;-78